sensor_id;sensor_type;location;lat;lon;timestamp;P1;durP1;ratioP1;P2;durP2;ratioP2
3083;SDS011;1552;51.952;7.618;2023-11-19T00:02:10;7.10;;;5.07;;
3083;SDS011;1552;51.952;7.618;2023-11-19T00:04:38;5.50;;;4.90;;
3083;SDS011;1552;51.952;7.618;2023-11-19T00:07:05;7.10;;;5.47;;
3083;SDS011;1552;51.952;7.618;2023-11-19T00:09:31;7.20;;;5.20;;
3083;SDS011;1552;51.952;7.618;2023-11-19T00:11:58;7.23;;;5.30;;
3083;SDS011;1552;51.952;7.618;2023-11-19T00:14:25;7.30;;;5.63;;
3083;SDS011;1552;51.952;7.618;2023-11-19T00:16:51;6.87;;;4.97;;
3083;SDS011;1552;51.952;7.618;2023-11-19T00:19:18;6.87;;;5.43;;
3083;SDS011;1552;51.952;7.618;2023-11-19T00:21:46;5.40;;;4.80;;
3083;SDS011;1552;51.952;7.618;2023-11-19T00:24:12;8.10;;;5.27;;
3083;SDS011;1552;51.952;7.618;2023-11-19T00:26:41;5.87;;;4.87;;
3083;SDS011;1552;51.952;7.618;2023-11-19T00:29:08;6.17;;;4.00;;
3083;SDS011;1552;51.952;7.618;2023-11-19T00:31:34;6.00;;;4.73;;
3083;SDS011;1552;51.952;7.618;2023-11-19T00:34:00;4.40;;;3.90;;
3083;SDS011;1552;51.952;7.618;2023-11-19T00:36:27;6.43;;;4.57;;
3083;SDS011;1552;51.952;7.618;2023-11-19T00:38:55;5.07;;;4.27;;
3083;SDS011;1552;51.952;7.618;2023-11-19T00:41:21;6.87;;;4.73;;
3083;SDS011;1552;51.952;7.618;2023-11-19T00:43:48;6.10;;;5.50;;
3083;SDS011;1552;51.952;7.618;2023-11-19T00:46:14;7.83;;;5.00;;
3083;SDS011;1552;51.952;7.618;2023-11-19T00:48:41;7.97;;;5.53;;
3083;SDS011;1552;51.952;7.618;2023-11-19T00:51:07;7.57;;;5.57;;
3083;SDS011;1552;51.952;7.618;2023-11-19T00:53:33;6.80;;;5.23;;
3083;SDS011;1552;51.952;7.618;2023-11-19T00:56:01;7.60;;;4.90;;
3083;SDS011;1552;51.952;7.618;2023-11-19T00:58:27;8.20;;;6.37;;
3083;SDS011;1552;51.952;7.618;2023-11-19T01:00:54;7.60;;;6.77;;
3083;SDS011;1552;51.952;7.618;2023-11-19T01:03:22;9.87;;;6.67;;
3083;SDS011;1552;51.952;7.618;2023-11-19T01:05:48;8.03;;;6.27;;
3083;SDS011;1552;51.952;7.618;2023-11-19T01:08:17;7.60;;;5.87;;
3083;SDS011;1552;51.952;7.618;2023-11-19T01:10:44;8.03;;;6.10;;
3083;SDS011;1552;51.952;7.618;2023-11-19T01:13:11;10.70;;;6.20;;
3083;SDS011;1552;51.952;7.618;2023-11-19T01:15:38;7.23;;;5.93;;
3083;SDS011;1552;51.952;7.618;2023-11-19T01:18:06;8.90;;;5.47;;
3083;SDS011;1552;51.952;7.618;2023-11-19T01:20:34;10.90;;;5.83;;
3083;SDS011;1552;51.952;7.618;2023-11-19T01:23:00;6.67;;;5.77;;
3083;SDS011;1552;51.952;7.618;2023-11-19T01:25:26;7.20;;;6.13;;
3083;SDS011;1552;51.952;7.618;2023-11-19T01:27:53;9.23;;;6.47;;
3083;SDS011;1552;51.952;7.618;2023-11-19T01:30:20;8.50;;;5.70;;
3083;SDS011;1552;51.952;7.618;2023-11-19T01:32:47;9.13;;;6.20;;
3083;SDS011;1552;51.952;7.618;2023-11-19T01:35:13;10.70;;;7.37;;
3083;SDS011;1552;51.952;7.618;2023-11-19T01:37:39;11.50;;;7.00;;
3083;SDS011;1552;51.952;7.618;2023-11-19T01:40:06;9.33;;;6.63;;
3083;SDS011;1552;51.952;7.618;2023-11-19T01:42:36;12.43;;;7.43;;
3083;SDS011;1552;51.952;7.618;2023-11-19T01:45:02;11.20;;;7.93;;
3083;SDS011;1552;51.952;7.618;2023-11-19T01:47:33;12.60;;;7.40;;
3083;SDS011;1552;51.952;7.618;2023-11-19T01:49:59;11.07;;;7.47;;
3083;SDS011;1552;51.952;7.618;2023-11-19T01:52:26;18.37;;;8.53;;
3083;SDS011;1552;51.952;7.618;2023-11-19T01:54:53;11.70;;;7.50;;
3083;SDS011;1552;51.952;7.618;2023-11-19T01:57:20;12.13;;;8.07;;
3083;SDS011;1552;51.952;7.618;2023-11-19T01:59:48;12.60;;;8.43;;
3083;SDS011;1552;51.952;7.618;2023-11-19T02:02:14;13.13;;;8.67;;
3083;SDS011;1552;51.952;7.618;2023-11-19T02:04:42;12.87;;;8.40;;
3083;SDS011;1552;51.952;7.618;2023-11-19T02:07:08;13.17;;;8.53;;
3083;SDS011;1552;51.952;7.618;2023-11-19T02:09:36;14.50;;;9.50;;
3083;SDS011;1552;51.952;7.618;2023-11-19T02:12:03;13.57;;;8.33;;
3083;SDS011;1552;51.952;7.618;2023-11-19T02:14:29;14.13;;;9.10;;
3083;SDS011;1552;51.952;7.618;2023-11-19T02:16:56;14.70;;;9.67;;
3083;SDS011;1552;51.952;7.618;2023-11-19T02:19:22;14.33;;;10.00;;
3083;SDS011;1552;51.952;7.618;2023-11-19T02:21:50;15.10;;;9.80;;
3083;SDS011;1552;51.952;7.618;2023-11-19T02:24:16;14.57;;;9.20;;
3083;SDS011;1552;51.952;7.618;2023-11-19T02:26:44;16.27;;;9.53;;
3083;SDS011;1552;51.952;7.618;2023-11-19T02:29:14;21.87;;;9.57;;
3083;SDS011;1552;51.952;7.618;2023-11-19T02:31:41;15.60;;;8.57;;
3083;SDS011;1552;51.952;7.618;2023-11-19T02:34:07;14.10;;;9.87;;
3083;SDS011;1552;51.952;7.618;2023-11-19T02:36:33;13.23;;;9.00;;
3083;SDS011;1552;51.952;7.618;2023-11-19T02:38:59;12.97;;;8.87;;
3083;SDS011;1552;51.952;7.618;2023-11-19T02:41:26;10.97;;;8.83;;
3083;SDS011;1552;51.952;7.618;2023-11-19T02:43:53;17.73;;;8.60;;
3083;SDS011;1552;51.952;7.618;2023-11-19T02:46:20;12.80;;;7.43;;
3083;SDS011;1552;51.952;7.618;2023-11-19T02:48:47;15.33;;;8.70;;
3083;SDS011;1552;51.952;7.618;2023-11-19T02:51:13;10.80;;;7.40;;
3083;SDS011;1552;51.952;7.618;2023-11-19T02:53:39;17.43;;;8.17;;
3083;SDS011;1552;51.952;7.618;2023-11-19T02:56:06;8.87;;;6.37;;
3083;SDS011;1552;51.952;7.618;2023-11-19T02:58:44;9.87;;;6.77;;
3083;SDS011;1552;51.952;7.618;2023-11-19T03:01:11;8.07;;;5.87;;
3083;SDS011;1552;51.952;7.618;2023-11-19T03:03:49;7.97;;;5.20;;
3083;SDS011;1552;51.952;7.618;2023-11-19T03:06:19;14.73;;;5.87;;
3083;SDS011;1552;51.952;7.618;2023-11-19T03:08:46;10.97;;;5.83;;
3083;SDS011;1552;51.952;7.618;2023-11-19T03:11:13;7.57;;;4.73;;
3083;SDS011;1552;51.952;7.618;2023-11-19T03:13:39;14.77;;;6.27;;
3083;SDS011;1552;51.952;7.618;2023-11-19T03:16:06;11.87;;;4.73;;
3083;SDS011;1552;51.952;7.618;2023-11-19T03:18:33;8.20;;;5.00;;
3083;SDS011;1552;51.952;7.618;2023-11-19T03:21:00;10.63;;;3.73;;
3083;SDS011;1552;51.952;7.618;2023-11-19T03:23:28;7.93;;;3.67;;
3083;SDS011;1552;51.952;7.618;2023-11-19T03:25:54;14.50;;;4.83;;
3083;SDS011;1552;51.952;7.618;2023-11-19T03:28:22;5.57;;;3.97;;
3083;SDS011;1552;51.952;7.618;2023-11-19T03:30:48;4.07;;;3.20;;
3083;SDS011;1552;51.952;7.618;2023-11-19T03:33:14;7.10;;;3.63;;
3083;SDS011;1552;51.952;7.618;2023-11-19T03:35:40;8.03;;;3.97;;
3083;SDS011;1552;51.952;7.618;2023-11-19T03:38:08;8.80;;;3.20;;
3083;SDS011;1552;51.952;7.618;2023-11-19T03:40:34;10.30;;;3.83;;
3083;SDS011;1552;51.952;7.618;2023-11-19T03:43:01;9.37;;;3.57;;
3083;SDS011;1552;51.952;7.618;2023-11-19T03:45:29;11.57;;;3.17;;
3083;SDS011;1552;51.952;7.618;2023-11-19T03:47:55;6.23;;;3.07;;
3083;SDS011;1552;51.952;7.618;2023-11-19T03:50:21;11.97;;;3.20;;
3083;SDS011;1552;51.952;7.618;2023-11-19T03:52:49;5.53;;;2.60;;
3083;SDS011;1552;51.952;7.618;2023-11-19T03:55:17;8.17;;;3.57;;
3083;SDS011;1552;51.952;7.618;2023-11-19T03:57:43;5.23;;;2.90;;
3083;SDS011;1552;51.952;7.618;2023-11-19T04:00:10;6.03;;;3.23;;
3083;SDS011;1552;51.952;7.618;2023-11-19T04:02:39;10.07;;;3.33;;
3083;SDS011;1552;51.952;7.618;2023-11-19T04:05:05;12.20;;;3.37;;
3083;SDS011;1552;51.952;7.618;2023-11-19T04:07:32;7.83;;;3.77;;
3083;SDS011;1552;51.952;7.618;2023-11-19T04:09:59;7.37;;;2.73;;
3083;SDS011;1552;51.952;7.618;2023-11-19T04:12:26;7.93;;;3.00;;
3083;SDS011;1552;51.952;7.618;2023-11-19T04:14:53;14.00;;;3.53;;
3083;SDS011;1552;51.952;7.618;2023-11-19T04:17:19;9.30;;;3.60;;
3083;SDS011;1552;51.952;7.618;2023-11-19T04:19:45;7.73;;;3.00;;
3083;SDS011;1552;51.952;7.618;2023-11-19T04:22:12;8.77;;;2.90;;
3083;SDS011;1552;51.952;7.618;2023-11-19T04:24:38;7.43;;;2.93;;
3083;SDS011;1552;51.952;7.618;2023-11-19T04:27:05;8.47;;;3.67;;
3083;SDS011;1552;51.952;7.618;2023-11-19T04:29:33;12.30;;;3.23;;
3083;SDS011;1552;51.952;7.618;2023-11-19T04:32:00;11.33;;;3.03;;
3083;SDS011;1552;51.952;7.618;2023-11-19T04:34:26;8.07;;;3.13;;
3083;SDS011;1552;51.952;7.618;2023-11-19T04:36:52;7.33;;;3.20;;
3083;SDS011;1552;51.952;7.618;2023-11-19T04:39:19;11.47;;;3.37;;
3083;SDS011;1552;51.952;7.618;2023-11-19T04:41:46;5.70;;;2.97;;
3083;SDS011;1552;51.952;7.618;2023-11-19T04:44:13;7.53;;;3.53;;
3083;SDS011;1552;51.952;7.618;2023-11-19T04:46:42;6.03;;;2.77;;
3083;SDS011;1552;51.952;7.618;2023-11-19T04:49:09;7.13;;;2.63;;
3083;SDS011;1552;51.952;7.618;2023-11-19T04:51:37;8.50;;;3.40;;
3083;SDS011;1552;51.952;7.618;2023-11-19T04:54:04;12.53;;;3.30;;
3083;SDS011;1552;51.952;7.618;2023-11-19T04:56:31;8.80;;;3.33;;
3083;SDS011;1552;51.952;7.618;2023-11-19T04:58:58;12.23;;;3.97;;
3083;SDS011;1552;51.952;7.618;2023-11-19T05:01:24;14.43;;;3.93;;
3083;SDS011;1552;51.952;7.618;2023-11-19T05:03:52;16.97;;;3.23;;
3083;SDS011;1552;51.952;7.618;2023-11-19T05:06:18;20.20;;;3.37;;
3083;SDS011;1552;51.952;7.618;2023-11-19T05:08:44;14.37;;;3.43;;
3083;SDS011;1552;51.952;7.618;2023-11-19T05:11:11;15.10;;;3.80;;
3083;SDS011;1552;51.952;7.618;2023-11-19T05:13:43;15.60;;;4.07;;
3083;SDS011;1552;51.952;7.618;2023-11-19T05:16:10;6.63;;;3.43;;
3083;SDS011;1552;51.952;7.618;2023-11-19T05:18:39;9.17;;;3.50;;
3083;SDS011;1552;51.952;7.618;2023-11-19T05:21:06;9.37;;;3.37;;
3083;SDS011;1552;51.952;7.618;2023-11-19T05:23:33;8.47;;;3.43;;
3083;SDS011;1552;51.952;7.618;2023-11-19T05:25:59;10.97;;;3.70;;
3083;SDS011;1552;51.952;7.618;2023-11-19T05:28:25;8.27;;;3.17;;
3083;SDS011;1552;51.952;7.618;2023-11-19T05:30:52;13.70;;;3.57;;
3083;SDS011;1552;51.952;7.618;2023-11-19T05:33:18;16.47;;;3.70;;
3083;SDS011;1552;51.952;7.618;2023-11-19T05:35:44;8.60;;;3.20;;
3083;SDS011;1552;51.952;7.618;2023-11-19T05:38:12;13.33;;;4.10;;
3083;SDS011;1552;51.952;7.618;2023-11-19T05:40:39;15.47;;;4.43;;
3083;SDS011;1552;51.952;7.618;2023-11-19T05:43:05;12.47;;;4.10;;
3083;SDS011;1552;51.952;7.618;2023-11-19T05:45:32;15.77;;;4.60;;
3083;SDS011;1552;51.952;7.618;2023-11-19T05:47:58;10.10;;;4.03;;
3083;SDS011;1552;51.952;7.618;2023-11-19T05:50:24;17.83;;;4.60;;
3083;SDS011;1552;51.952;7.618;2023-11-19T05:52:51;10.83;;;4.00;;
3083;SDS011;1552;51.952;7.618;2023-11-19T05:55:19;17.83;;;4.63;;
3083;SDS011;1552;51.952;7.618;2023-11-19T05:57:45;16.17;;;4.33;;
3083;SDS011;1552;51.952;7.618;2023-11-19T06:00:12;12.03;;;4.33;;
3083;SDS011;1552;51.952;7.618;2023-11-19T06:02:40;12.63;;;4.13;;
3083;SDS011;1552;51.952;7.618;2023-11-19T06:05:06;17.83;;;5.13;;
3083;SDS011;1552;51.952;7.618;2023-11-19T06:07:34;13.23;;;4.00;;
3083;SDS011;1552;51.952;7.618;2023-11-19T06:10:01;12.07;;;3.77;;
3083;SDS011;1552;51.952;7.618;2023-11-19T06:12:31;18.73;;;4.50;;
3083;SDS011;1552;51.952;7.618;2023-11-19T06:14:58;10.53;;;3.87;;
3083;SDS011;1552;51.952;7.618;2023-11-19T06:17:25;16.83;;;3.83;;
3083;SDS011;1552;51.952;7.618;2023-11-19T06:19:51;32.80;;;5.10;;
3083;SDS011;1552;51.952;7.618;2023-11-19T06:22:17;18.07;;;4.73;;
3083;SDS011;1552;51.952;7.618;2023-11-19T06:24:44;11.63;;;4.97;;
3083;SDS011;1552;51.952;7.618;2023-11-19T06:27:10;18.33;;;4.53;;
3083;SDS011;1552;51.952;7.618;2023-11-19T06:29:37;14.53;;;3.87;;
3083;SDS011;1552;51.952;7.618;2023-11-19T06:32:05;12.40;;;4.20;;
3083;SDS011;1552;51.952;7.618;2023-11-19T06:34:33;10.33;;;3.80;;
3083;SDS011;1552;51.952;7.618;2023-11-19T06:36:59;12.30;;;4.60;;
3083;SDS011;1552;51.952;7.618;2023-11-19T06:39:28;21.30;;;4.83;;
3083;SDS011;1552;51.952;7.618;2023-11-19T06:41:54;14.30;;;4.53;;
3083;SDS011;1552;51.952;7.618;2023-11-19T06:44:20;9.70;;;4.50;;
3083;SDS011;1552;51.952;7.618;2023-11-19T06:46:49;21.47;;;5.03;;
3083;SDS011;1552;51.952;7.618;2023-11-19T06:49:15;19.03;;;4.43;;
3083;SDS011;1552;51.952;7.618;2023-11-19T06:51:42;14.43;;;4.20;;
3083;SDS011;1552;51.952;7.618;2023-11-19T06:54:09;12.80;;;4.87;;
3083;SDS011;1552;51.952;7.618;2023-11-19T06:56:35;21.30;;;5.77;;
3083;SDS011;1552;51.952;7.618;2023-11-19T06:59:02;13.97;;;4.07;;
3083;SDS011;1552;51.952;7.618;2023-11-19T07:01:29;11.03;;;4.17;;
3083;SDS011;1552;51.952;7.618;2023-11-19T07:04:01;12.77;;;4.50;;
3083;SDS011;1552;51.952;7.618;2023-11-19T07:06:33;15.80;;;5.07;;
3083;SDS011;1552;51.952;7.618;2023-11-19T07:08:59;14.23;;;5.33;;
3083;SDS011;1552;51.952;7.618;2023-11-19T07:11:27;31.70;;;5.93;;
3083;SDS011;1552;51.952;7.618;2023-11-19T07:13:54;9.80;;;3.60;;
3083;SDS011;1552;51.952;7.618;2023-11-19T07:16:20;18.10;;;4.97;;
3083;SDS011;1552;51.952;7.618;2023-11-19T07:18:47;20.90;;;5.27;;
3083;SDS011;1552;51.952;7.618;2023-11-19T07:21:16;15.83;;;4.67;;
3083;SDS011;1552;51.952;7.618;2023-11-19T07:23:42;15.37;;;4.63;;
3083;SDS011;1552;51.952;7.618;2023-11-19T07:26:09;16.53;;;4.70;;
3083;SDS011;1552;51.952;7.618;2023-11-19T07:28:36;15.73;;;4.63;;
3083;SDS011;1552;51.952;7.618;2023-11-19T07:31:02;12.63;;;4.63;;
3083;SDS011;1552;51.952;7.618;2023-11-19T07:33:29;26.83;;;5.60;;
3083;SDS011;1552;51.952;7.618;2023-11-19T07:35:55;13.57;;;5.03;;
3083;SDS011;1552;51.952;7.618;2023-11-19T07:38:23;22.10;;;5.73;;
3083;SDS011;1552;51.952;7.618;2023-11-19T07:40:49;20.77;;;5.03;;
3083;SDS011;1552;51.952;7.618;2023-11-19T07:43:16;28.33;;;5.33;;
3083;SDS011;1552;51.952;7.618;2023-11-19T07:45:42;22.67;;;5.00;;
3083;SDS011;1552;51.952;7.618;2023-11-19T07:48:10;18.60;;;5.20;;
3083;SDS011;1552;51.952;7.618;2023-11-19T07:50:38;16.37;;;4.47;;
3083;SDS011;1552;51.952;7.618;2023-11-19T07:53:05;17.80;;;4.97;;
3083;SDS011;1552;51.952;7.618;2023-11-19T07:55:33;14.80;;;4.67;;
3083;SDS011;1552;51.952;7.618;2023-11-19T07:58:00;18.30;;;4.60;;
3083;SDS011;1552;51.952;7.618;2023-11-19T08:00:26;23.40;;;4.97;;
3083;SDS011;1552;51.952;7.618;2023-11-19T08:02:52;15.63;;;4.57;;
3083;SDS011;1552;51.952;7.618;2023-11-19T08:05:19;10.60;;;3.30;;
3083;SDS011;1552;51.952;7.618;2023-11-19T08:07:45;17.20;;;5.17;;
3083;SDS011;1552;51.952;7.618;2023-11-19T08:10:11;22.60;;;5.47;;
3083;SDS011;1552;51.952;7.618;2023-11-19T08:12:39;24.47;;;5.60;;
3083;SDS011;1552;51.952;7.618;2023-11-19T08:15:05;15.47;;;4.63;;
3083;SDS011;1552;51.952;7.618;2023-11-19T08:17:32;20.67;;;4.07;;
3083;SDS011;1552;51.952;7.618;2023-11-19T08:19:58;20.63;;;5.33;;
3083;SDS011;1552;51.952;7.618;2023-11-19T08:22:25;18.07;;;4.27;;
3083;SDS011;1552;51.952;7.618;2023-11-19T08:24:51;15.30;;;4.40;;
3083;SDS011;1552;51.952;7.618;2023-11-19T08:27:18;14.73;;;4.10;;
3083;SDS011;1552;51.952;7.618;2023-11-19T08:29:45;20.10;;;5.30;;
3083;SDS011;1552;51.952;7.618;2023-11-19T08:32:12;20.67;;;5.33;;
3083;SDS011;1552;51.952;7.618;2023-11-19T08:34:38;13.87;;;4.53;;
3083;SDS011;1552;51.952;7.618;2023-11-19T08:37:05;17.47;;;4.73;;
3083;SDS011;1552;51.952;7.618;2023-11-19T08:39:31;15.80;;;5.17;;
3083;SDS011;1552;51.952;7.618;2023-11-19T08:41:57;16.53;;;4.23;;
3083;SDS011;1552;51.952;7.618;2023-11-19T08:44:23;15.87;;;5.60;;
3083;SDS011;1552;51.952;7.618;2023-11-19T08:46:51;17.13;;;5.17;;
3083;SDS011;1552;51.952;7.618;2023-11-19T08:49:17;19.60;;;4.70;;
3083;SDS011;1552;51.952;7.618;2023-11-19T08:51:44;18.03;;;4.97;;
3083;SDS011;1552;51.952;7.618;2023-11-19T08:54:10;16.50;;;5.13;;
3083;SDS011;1552;51.952;7.618;2023-11-19T08:56:37;27.57;;;6.77;;
3083;SDS011;1552;51.952;7.618;2023-11-19T08:59:04;19.43;;;5.20;;
3083;SDS011;1552;51.952;7.618;2023-11-19T09:01:30;18.23;;;6.10;;
3083;SDS011;1552;51.952;7.618;2023-11-19T09:03:58;19.27;;;5.10;;
3083;SDS011;1552;51.952;7.618;2023-11-19T09:06:24;17.03;;;5.00;;
3083;SDS011;1552;51.952;7.618;2023-11-19T09:08:51;15.37;;;4.70;;
3083;SDS011;1552;51.952;7.618;2023-11-19T09:11:17;17.87;;;5.17;;
3083;SDS011;1552;51.952;7.618;2023-11-19T09:13:44;12.23;;;4.67;;
3083;SDS011;1552;51.952;7.618;2023-11-19T09:16:11;14.10;;;3.87;;
3083;SDS011;1552;51.952;7.618;2023-11-19T09:18:38;23.80;;;5.47;;
3083;SDS011;1552;51.952;7.618;2023-11-19T09:21:05;19.63;;;5.17;;
3083;SDS011;1552;51.952;7.618;2023-11-19T09:23:32;16.93;;;5.17;;
3083;SDS011;1552;51.952;7.618;2023-11-19T09:26:04;15.40;;;3.87;;
3083;SDS011;1552;51.952;7.618;2023-11-19T09:28:30;22.00;;;6.07;;
3083;SDS011;1552;51.952;7.618;2023-11-19T09:30:57;25.70;;;5.53;;
3083;SDS011;1552;51.952;7.618;2023-11-19T09:33:24;13.63;;;4.60;;
3083;SDS011;1552;51.952;7.618;2023-11-19T09:35:51;19.93;;;6.40;;
3083;SDS011;1552;51.952;7.618;2023-11-19T09:38:19;18.73;;;5.43;;
3083;SDS011;1552;51.952;7.618;2023-11-19T09:40:45;15.23;;;5.57;;
3083;SDS011;1552;51.952;7.618;2023-11-19T09:43:12;20.27;;;5.53;;
3083;SDS011;1552;51.952;7.618;2023-11-19T09:45:42;17.47;;;4.87;;
3083;SDS011;1552;51.952;7.618;2023-11-19T09:48:11;26.30;;;5.67;;
3083;SDS011;1552;51.952;7.618;2023-11-19T09:50:38;14.53;;;4.83;;
3083;SDS011;1552;51.952;7.618;2023-11-19T09:53:05;21.47;;;5.67;;
3083;SDS011;1552;51.952;7.618;2023-11-19T09:55:32;27.43;;;5.17;;
3083;SDS011;1552;51.952;7.618;2023-11-19T09:57:59;16.77;;;4.17;;
3083;SDS011;1552;51.952;7.618;2023-11-19T10:00:27;18.93;;;5.37;;
3083;SDS011;1552;51.952;7.618;2023-11-19T10:02:53;13.27;;;4.37;;
3083;SDS011;1552;51.952;7.618;2023-11-19T10:05:20;14.17;;;4.87;;
3083;SDS011;1552;51.952;7.618;2023-11-19T10:07:48;20.10;;;4.87;;
3083;SDS011;1552;51.952;7.618;2023-11-19T10:10:14;10.20;;;4.13;;
3083;SDS011;1552;51.952;7.618;2023-11-19T10:12:45;18.13;;;4.90;;
3083;SDS011;1552;51.952;7.618;2023-11-19T10:15:16;17.70;;;4.93;;
3083;SDS011;1552;51.952;7.618;2023-11-19T10:17:43;16.93;;;4.83;;
3083;SDS011;1552;51.952;7.618;2023-11-19T10:20:10;18.50;;;4.87;;
3083;SDS011;1552;51.952;7.618;2023-11-19T10:22:36;13.20;;;5.10;;
3083;SDS011;1552;51.952;7.618;2023-11-19T10:25:03;19.83;;;4.00;;
3083;SDS011;1552;51.952;7.618;2023-11-19T10:27:29;9.80;;;4.47;;
3083;SDS011;1552;51.952;7.618;2023-11-19T10:29:58;20.20;;;4.60;;
3083;SDS011;1552;51.952;7.618;2023-11-19T10:32:25;29.10;;;4.67;;
3083;SDS011;1552;51.952;7.618;2023-11-19T10:34:51;20.80;;;5.23;;
3083;SDS011;1552;51.952;7.618;2023-11-19T10:37:27;15.77;;;4.50;;
3083;SDS011;1552;51.952;7.618;2023-11-19T10:39:53;15.20;;;5.07;;
3083;SDS011;1552;51.952;7.618;2023-11-19T10:42:20;32.17;;;6.20;;
3083;SDS011;1552;51.952;7.618;2023-11-19T10:44:46;22.53;;;4.67;;
3083;SDS011;1552;51.952;7.618;2023-11-19T10:47:14;18.67;;;4.80;;
3083;SDS011;1552;51.952;7.618;2023-11-19T10:49:43;27.00;;;5.83;;
3083;SDS011;1552;51.952;7.618;2023-11-19T10:52:10;17.10;;;4.40;;
3083;SDS011;1552;51.952;7.618;2023-11-19T10:54:38;22.40;;;5.23;;
3083;SDS011;1552;51.952;7.618;2023-11-19T10:57:06;27.57;;;5.63;;
3083;SDS011;1552;51.952;7.618;2023-11-19T10:59:33;18.53;;;5.17;;
3083;SDS011;1552;51.952;7.618;2023-11-19T11:02:02;19.70;;;5.50;;
3083;SDS011;1552;51.952;7.618;2023-11-19T11:04:32;18.07;;;4.77;;
3083;SDS011;1552;51.952;7.618;2023-11-19T11:07:02;15.27;;;3.83;;
3083;SDS011;1552;51.952;7.618;2023-11-19T11:09:29;17.97;;;4.93;;
3083;SDS011;1552;51.952;7.618;2023-11-19T11:11:56;15.80;;;4.60;;
3083;SDS011;1552;51.952;7.618;2023-11-19T11:14:23;15.00;;;5.40;;
3083;SDS011;1552;51.952;7.618;2023-11-19T11:16:50;12.63;;;4.33;;
3083;SDS011;1552;51.952;7.618;2023-11-19T11:19:17;19.03;;;4.90;;
3083;SDS011;1552;51.952;7.618;2023-11-19T11:21:45;18.87;;;5.30;;
3083;SDS011;1552;51.952;7.618;2023-11-19T11:27:04;14.47;;;4.20;;
3083;SDS011;1552;51.952;7.618;2023-11-19T11:29:35;14.00;;;4.00;;
3083;SDS011;1552;51.952;7.618;2023-11-19T11:32:05;18.03;;;5.67;;
3083;SDS011;1552;51.952;7.618;2023-11-19T11:37:24;19.87;;;5.53;;
3083;SDS011;1552;51.952;7.618;2023-11-19T11:39:52;17.33;;;4.47;;
3083;SDS011;1552;51.952;7.618;2023-11-19T11:42:32;17.53;;;4.50;;
3083;SDS011;1552;51.952;7.618;2023-11-19T11:44:58;29.40;;;5.17;;
3083;SDS011;1552;51.952;7.618;2023-11-19T11:47:25;23.77;;;6.10;;
3083;SDS011;1552;51.952;7.618;2023-11-19T11:49:51;21.40;;;5.23;;
3083;SDS011;1552;51.952;7.618;2023-11-19T11:52:18;22.20;;;4.50;;
3083;SDS011;1552;51.952;7.618;2023-11-19T11:54:46;22.67;;;5.53;;
3083;SDS011;1552;51.952;7.618;2023-11-19T11:57:13;20.60;;;4.47;;
3083;SDS011;1552;51.952;7.618;2023-11-19T11:59:48;27.77;;;5.37;;
3083;SDS011;1552;51.952;7.618;2023-11-19T12:02:15;21.97;;;4.93;;
3083;SDS011;1552;51.952;7.618;2023-11-19T12:04:41;14.00;;;4.40;;
3083;SDS011;1552;51.952;7.618;2023-11-19T12:07:08;9.57;;;4.03;;
3083;SDS011;1552;51.952;7.618;2023-11-19T12:09:36;16.83;;;4.33;;
3083;SDS011;1552;51.952;7.618;2023-11-19T12:12:19;17.60;;;4.10;;
3083;SDS011;1552;51.952;7.618;2023-11-19T12:15:06;20.00;;;4.87;;
3083;SDS011;1552;51.952;7.618;2023-11-19T12:17:41;23.13;;;4.83;;
3083;SDS011;1552;51.952;7.618;2023-11-19T12:20:09;15.87;;;3.90;;
3083;SDS011;1552;51.952;7.618;2023-11-19T12:22:36;17.67;;;4.90;;
3083;SDS011;1552;51.952;7.618;2023-11-19T12:25:03;19.87;;;5.30;;
3083;SDS011;1552;51.952;7.618;2023-11-19T12:27:32;15.57;;;4.27;;
3083;SDS011;1552;51.952;7.618;2023-11-19T12:29:58;11.50;;;3.97;;
3083;SDS011;1552;51.952;7.618;2023-11-19T12:32:25;21.40;;;4.60;;
3083;SDS011;1552;51.952;7.618;2023-11-19T12:34:51;14.70;;;4.20;;
3083;SDS011;1552;51.952;7.618;2023-11-19T12:37:17;15.13;;;4.33;;
3083;SDS011;1552;51.952;7.618;2023-11-19T12:39:44;11.70;;;4.60;;
3083;SDS011;1552;51.952;7.618;2023-11-19T12:42:10;21.33;;;4.60;;
3083;SDS011;1552;51.952;7.618;2023-11-19T12:44:39;12.70;;;4.53;;
3083;SDS011;1552;51.952;7.618;2023-11-19T12:47:05;15.20;;;4.40;;
3083;SDS011;1552;51.952;7.618;2023-11-19T12:49:32;15.80;;;4.70;;
3083;SDS011;1552;51.952;7.618;2023-11-19T12:51:59;16.03;;;4.57;;
3083;SDS011;1552;51.952;7.618;2023-11-19T12:54:32;17.13;;;4.13;;
3083;SDS011;1552;51.952;7.618;2023-11-19T12:56:58;4.67;;;2.97;;
3083;SDS011;1552;51.952;7.618;2023-11-19T12:59:25;18.67;;;5.03;;
3083;SDS011;1552;51.952;7.618;2023-11-19T13:01:56;15.53;;;4.33;;
3083;SDS011;1552;51.952;7.618;2023-11-19T13:04:27;13.43;;;4.23;;
3083;SDS011;1552;51.952;7.618;2023-11-19T13:06:55;15.23;;;4.03;;
3083;SDS011;1552;51.952;7.618;2023-11-19T13:09:22;17.50;;;4.93;;
3083;SDS011;1552;51.952;7.618;2023-11-19T13:11:49;14.77;;;4.37;;
3083;SDS011;1552;51.952;7.618;2023-11-19T13:14:15;15.87;;;4.80;;
3083;SDS011;1552;51.952;7.618;2023-11-19T13:16:42;15.90;;;4.47;;
3083;SDS011;1552;51.952;7.618;2023-11-19T13:19:11;9.83;;;3.63;;
3083;SDS011;1552;51.952;7.618;2023-11-19T13:21:38;9.23;;;3.63;;
3083;SDS011;1552;51.952;7.618;2023-11-19T13:24:05;11.53;;;3.73;;
3083;SDS011;1552;51.952;7.618;2023-11-19T13:26:31;16.63;;;4.57;;
3083;SDS011;1552;51.952;7.618;2023-11-19T13:28:57;14.47;;;4.50;;
3083;SDS011;1552;51.952;7.618;2023-11-19T13:31:24;14.57;;;3.90;;
3083;SDS011;1552;51.952;7.618;2023-11-19T13:33:50;10.47;;;4.07;;
3083;SDS011;1552;51.952;7.618;2023-11-19T13:36:18;33.23;;;4.93;;
3083;SDS011;1552;51.952;7.618;2023-11-19T13:38:44;16.00;;;4.13;;
3083;SDS011;1552;51.952;7.618;2023-11-19T13:41:12;15.07;;;3.90;;
3083;SDS011;1552;51.952;7.618;2023-11-19T13:43:38;16.60;;;4.13;;
3083;SDS011;1552;51.952;7.618;2023-11-19T13:46:05;13.77;;;3.60;;
3083;SDS011;1552;51.952;7.618;2023-11-19T13:48:31;22.40;;;4.57;;
3083;SDS011;1552;51.952;7.618;2023-11-19T13:50:58;24.87;;;3.50;;
3083;SDS011;1552;51.952;7.618;2023-11-19T13:53:26;12.57;;;3.37;;
3083;SDS011;1552;51.952;7.618;2023-11-19T13:55:53;8.63;;;3.73;;
3083;SDS011;1552;51.952;7.618;2023-11-19T13:58:19;14.30;;;3.53;;
3083;SDS011;1552;51.952;7.618;2023-11-19T14:00:45;9.67;;;3.63;;
3083;SDS011;1552;51.952;7.618;2023-11-19T14:03:11;11.93;;;4.10;;
3083;SDS011;1552;51.952;7.618;2023-11-19T14:05:37;17.00;;;3.60;;
3083;SDS011;1552;51.952;7.618;2023-11-19T14:08:03;11.57;;;3.20;;
3083;SDS011;1552;51.952;7.618;2023-11-19T14:10:37;11.37;;;4.17;;
3083;SDS011;1552;51.952;7.618;2023-11-19T14:13:05;13.10;;;3.80;;
3083;SDS011;1552;51.952;7.618;2023-11-19T14:15:31;16.70;;;5.43;;
3083;SDS011;1552;51.952;7.618;2023-11-19T14:17:58;7.40;;;3.30;;
3083;SDS011;1552;51.952;7.618;2023-11-19T14:20:24;10.07;;;3.37;;
3083;SDS011;1552;51.952;7.618;2023-11-19T14:22:50;23.93;;;4.30;;
3083;SDS011;1552;51.952;7.618;2023-11-19T14:25:18;7.97;;;3.03;;
3083;SDS011;1552;51.952;7.618;2023-11-19T14:27:47;9.90;;;3.07;;
3083;SDS011;1552;51.952;7.618;2023-11-19T14:30:13;21.17;;;3.07;;
3083;SDS011;1552;51.952;7.618;2023-11-19T14:32:41;7.73;;;2.87;;
3083;SDS011;1552;51.952;7.618;2023-11-19T14:35:09;15.03;;;3.10;;
3083;SDS011;1552;51.952;7.618;2023-11-19T14:37:35;12.80;;;3.47;;
3083;SDS011;1552;51.952;7.618;2023-11-19T14:40:02;8.83;;;3.70;;
3083;SDS011;1552;51.952;7.618;2023-11-19T14:42:29;12.70;;;3.53;;
3083;SDS011;1552;51.952;7.618;2023-11-19T14:44:57;16.67;;;2.87;;
3083;SDS011;1552;51.952;7.618;2023-11-19T14:47:24;18.77;;;3.97;;
3083;SDS011;1552;51.952;7.618;2023-11-19T14:49:50;9.27;;;3.30;;
3083;SDS011;1552;51.952;7.618;2023-11-19T14:52:16;10.23;;;3.10;;
3083;SDS011;1552;51.952;7.618;2023-11-19T14:54:43;15.43;;;3.60;;
3083;SDS011;1552;51.952;7.618;2023-11-19T14:57:09;9.17;;;3.47;;
3083;SDS011;1552;51.952;7.618;2023-11-19T14:59:36;17.50;;;3.87;;
3083;SDS011;1552;51.952;7.618;2023-11-19T15:02:04;14.73;;;3.30;;
3083;SDS011;1552;51.952;7.618;2023-11-19T15:04:30;17.67;;;3.67;;
3083;SDS011;1552;51.952;7.618;2023-11-19T15:06:56;13.10;;;3.90;;
3083;SDS011;1552;51.952;7.618;2023-11-19T15:09:23;20.83;;;4.90;;
3083;SDS011;1552;51.952;7.618;2023-11-19T15:11:50;27.87;;;4.33;;